TVS64C EPKK-LKPR
Flight info
| Callsign | TVS64C |
|---|---|
| Flight time | 0h 44m |
| Altitude | 36000 |
| Route | TUSIN DCT LABUK DCT TUMKA DCT VLM |
| Aircraft | A320/M-SDE3FGHIRWY/LB1 |
Departure
| Time | 2026-05-06 19:41 |
|---|---|
| Airport | Kraków John Paul II International Airport (EPKK) |
Arrival
| Time | 2026-05-06 20:25 |
|---|---|
| Airport | Václav Havel Airport Prague (LKPR) |
| Time | Latitude | Longitude | Altitude | Speed | Heading |
|---|---|---|---|---|---|
| 2026-05-06 19:29 | 50.07694 | 19.80163 | 800 ft | 0 kts | 348° |
| 2026-05-06 19:37 | 50.07697 | 19.80162 | 800 ft | 3 kts | 348° |
| 2026-05-06 19:37 | 50.07745 | 19.80167 | 800 ft | 11 kts | 39° |
| 2026-05-06 19:38 | 50.07774 | 19.80303 | 800 ft | 14 kts | 69° |
| 2026-05-06 19:38 | 50.07838 | 19.80338 | 800 ft | 0 kts | 348° |
| 2026-05-06 19:39 | 50.07865 | 19.80330 | 800 ft | 11 kts | 348° |
| 2026-05-06 19:39 | 50.07982 | 19.80290 | 799 ft | 20 kts | 345° |
| 2026-05-06 19:39 | 50.08006 | 19.80170 | 801 ft | 0 kts | 259° |
| 2026-05-06 19:40 | 50.08006 | 19.80167 | 801 ft | 4 kts | 259° |
| 2026-05-06 19:40 | 50.07965 | 19.79861 | 800 ft | 58 kts | 258° |
| 2026-05-06 19:40 | 50.07827 | 19.78873 | 803 ft | 126 kts | 258° |
| 2026-05-06 19:40 | 50.07605 | 19.77285 | 962 ft | 163 kts | 258° |
| 2026-05-06 19:41 | 50.07346 | 19.75520 | 1578 ft | 172 kts | 256° |
| 2026-05-06 19:41 | 50.07069 | 19.73707 | 2281 ft | 175 kts | 252° |
| 2026-05-06 19:41 | 50.06796 | 19.71805 | 2820 ft | 190 kts | 252° |
| 2026-05-06 19:41 | 50.06494 | 19.69664 | 3175 ft | 215 kts | 252° |
| 2026-05-06 19:42 | 50.06145 | 19.67264 | 3661 ft | 239 kts | 250° |
| 2026-05-06 19:42 | 50.05692 | 19.64718 | 4527 ft | 245 kts | 248° |
| 2026-05-06 19:42 | 50.05208 | 19.62172 | 5632 ft | 245 kts | 247° |
| 2026-05-06 19:42 | 50.04710 | 19.59597 | 6673 ft | 246 kts | 247° |
| 2026-05-06 19:43 | 50.04216 | 19.57047 | 7548 ft | 252 kts | 248° |
| 2026-05-06 19:43 | 50.03704 | 19.54409 | 8384 ft | 259 kts | 249° |
| 2026-05-06 19:43 | 50.03180 | 19.51702 | 9238 ft | 265 kts | 250° |
| 2026-05-06 19:43 | 50.02645 | 19.48917 | 10007 ft | 275 kts | 250° |
| 2026-05-06 19:44 | 50.02072 | 19.45950 | 10327 ft | 298 kts | 250° |
| 2026-05-06 19:44 | 50.01460 | 19.42766 | 10839 ft | 313 kts | 250° |
| 2026-05-06 19:44 | 50.00836 | 19.39490 | 11582 ft | 319 kts | 250° |
| 2026-05-06 19:44 | 50.00202 | 19.36161 | 12355 ft | 324 kts | 250° |
| 2026-05-06 19:45 | 49.99556 | 19.32781 | 13140 ft | 329 kts | 250° |
| 2026-05-06 19:45 | 49.98895 | 19.29348 | 13875 ft | 333 kts | 250° |
| 2026-05-06 19:45 | 49.98246 | 19.25983 | 14545 ft | 337 kts | 250° |
| 2026-05-06 19:45 | 49.97552 | 19.22387 | 15272 ft | 341 kts | 250° |
| 2026-05-06 19:46 | 49.96866 | 19.18844 | 15970 ft | 344 kts | 250° |
| 2026-05-06 19:46 | 49.96170 | 19.15259 | 16631 ft | 348 kts | 250° |
| 2026-05-06 19:46 | 49.95468 | 19.11644 | 17337 ft | 351 kts | 250° |
| 2026-05-06 19:46 | 49.94766 | 19.08035 | 17984 ft | 355 kts | 250° |
| 2026-05-06 19:47 | 49.94046 | 19.04341 | 18588 ft | 359 kts | 250° |
| 2026-05-06 19:47 | 49.93318 | 19.00614 | 19189 ft | 362 kts | 250° |
| 2026-05-06 19:47 | 49.92585 | 18.96863 | 19809 ft | 364 kts | 251° |
| 2026-05-06 19:47 | 49.91845 | 18.93091 | 20424 ft | 367 kts | 251° |
| 2026-05-06 19:48 | 49.91094 | 18.89276 | 21006 ft | 371 kts | 251° |
| 2026-05-06 19:48 | 49.90336 | 18.85435 | 21599 ft | 374 kts | 251° |
| 2026-05-06 19:48 | 49.89572 | 18.81563 | 22197 ft | 377 kts | 251° |
| 2026-05-06 19:48 | 49.88999 | 18.77563 | 22783 ft | 383 kts | 264° |
| 2026-05-06 19:49 | 49.89174 | 18.73478 | 23348 ft | 389 kts | 277° |
| 2026-05-06 19:49 | 49.89632 | 18.69263 | 23844 ft | 392 kts | 277° |
| 2026-05-06 19:49 | 49.90097 | 18.65130 | 24305 ft | 395 kts | 277° |
| 2026-05-06 19:49 | 49.90573 | 18.60919 | 24765 ft | 398 kts | 277° |
| 2026-05-06 19:50 | 49.91051 | 18.56674 | 25217 ft | 401 kts | 277° |
| 2026-05-06 19:50 | 49.91523 | 18.52407 | 25657 ft | 403 kts | 277° |
| 2026-05-06 19:50 | 49.91993 | 18.48101 | 26093 ft | 406 kts | 277° |
| 2026-05-06 19:50 | 49.92461 | 18.43765 | 26514 ft | 409 kts | 277° |
| 2026-05-06 19:51 | 49.92928 | 18.39395 | 26919 ft | 412 kts | 277° |
| 2026-05-06 19:51 | 49.93400 | 18.34987 | 27317 ft | 414 kts | 277° |
| 2026-05-06 19:51 | 49.93873 | 18.30555 | 27724 ft | 417 kts | 277° |
| 2026-05-06 19:51 | 49.94345 | 18.26103 | 28117 ft | 419 kts | 277° |
| 2026-05-06 19:52 | 49.94818 | 18.21610 | 28501 ft | 422 kts | 277° |
| 2026-05-06 19:52 | 49.95294 | 18.17100 | 28885 ft | 424 kts | 277° |
| 2026-05-06 19:52 | 49.95772 | 18.12559 | 29257 ft | 427 kts | 277° |
| 2026-05-06 19:52 | 49.96252 | 18.07996 | 29624 ft | 429 kts | 277° |
| 2026-05-06 19:53 | 49.96726 | 18.03455 | 29952 ft | 432 kts | 277° |
| 2026-05-06 19:53 | 49.97204 | 17.98851 | 30252 ft | 434 kts | 277° |
| 2026-05-06 19:53 | 49.97684 | 17.94216 | 30558 ft | 435 kts | 277° |
| 2026-05-06 19:53 | 49.98164 | 17.89557 | 30860 ft | 437 kts | 277° |
| 2026-05-06 19:54 | 49.98643 | 17.84886 | 31156 ft | 438 kts | 277° |
| 2026-05-06 19:54 | 49.99121 | 17.80208 | 31438 ft | 439 kts | 277° |
| 2026-05-06 19:54 | 49.99598 | 17.75509 | 31796 ft | 438 kts | 277° |
| 2026-05-06 19:54 | 50.00070 | 17.70838 | 32206 ft | 436 kts | 277° |
| 2026-05-06 19:55 | 50.00540 | 17.66194 | 32614 ft | 435 kts | 277° |
| 2026-05-06 19:55 | 50.01009 | 17.61554 | 33021 ft | 433 kts | 277° |
| 2026-05-06 19:55 | 50.01472 | 17.56932 | 33445 ft | 431 kts | 276° |
| 2026-05-06 19:55 | 50.01928 | 17.52342 | 33877 ft | 429 kts | 276° |
| 2026-05-06 19:56 | 50.02382 | 17.47772 | 34265 ft | 427 kts | 276° |
| 2026-05-06 19:56 | 50.02836 | 17.43218 | 34602 ft | 425 kts | 276° |
| 2026-05-06 19:56 | 50.03286 | 17.38678 | 34929 ft | 424 kts | 276° |
| 2026-05-06 19:56 | 50.03732 | 17.34145 | 35239 ft | 423 kts | 276° |
| 2026-05-06 19:57 | 50.04172 | 17.29642 | 35538 ft | 422 kts | 276° |
| 2026-05-06 19:57 | 50.04606 | 17.25138 | 35744 ft | 421 kts | 276° |
| 2026-05-06 19:57 | 50.05463 | 17.16206 | 35796 ft | 413 kts | 276° |
| 2026-05-06 19:58 | 50.06168 | 17.08872 | 35801 ft | 412 kts | 276° |
| 2026-05-06 19:58 | 50.07145 | 16.98614 | 35802 ft | 412 kts | 276° |
| 2026-05-06 19:59 | 50.07978 | 16.89797 | 35803 ft | 412 kts | 275° |
| 2026-05-06 19:59 | 50.08669 | 16.82432 | 35797 ft | 412 kts | 275° |
| 2026-05-06 20:00 | 50.09476 | 16.73660 | 35725 ft | 411 kts | 275° |
| 2026-05-06 20:00 | 50.09881 | 16.69262 | 35366 ft | 410 kts | 275° |
| 2026-05-06 20:00 | 50.10287 | 16.64847 | 34921 ft | 412 kts | 275° |
| 2026-05-06 20:01 | 50.10692 | 16.60421 | 34287 ft | 412 kts | 275° |
| 2026-05-06 20:01 | 50.11088 | 16.56071 | 33766 ft | 410 kts | 275° |
| 2026-05-06 20:01 | 50.11487 | 16.51691 | 33187 ft | 407 kts | 275° |
| 2026-05-06 20:01 | 50.11882 | 16.47350 | 32616 ft | 404 kts | 275° |
| 2026-05-06 20:02 | 50.12273 | 16.43020 | 32073 ft | 402 kts | 275° |
| 2026-05-06 20:02 | 50.12659 | 16.38725 | 31548 ft | 399 kts | 274° |
| 2026-05-06 20:02 | 50.13039 | 16.34453 | 31032 ft | 397 kts | 274° |
| 2026-05-06 20:02 | 50.13411 | 16.30236 | 30531 ft | 394 kts | 274° |
| 2026-05-06 20:03 | 50.13782 | 16.26007 | 30032 ft | 392 kts | 274° |
| 2026-05-06 20:03 | 50.14149 | 16.21807 | 29545 ft | 390 kts | 274° |
| 2026-05-06 20:03 | 50.14513 | 16.17623 | 28991 ft | 388 kts | 274° |
| 2026-05-06 20:03 | 50.14874 | 16.13462 | 28472 ft | 385 kts | 274° |
| 2026-05-06 20:04 | 50.15234 | 16.09340 | 27978 ft | 382 kts | 274° |
| 2026-05-06 20:04 | 50.15588 | 16.05296 | 27506 ft | 379 kts | 274° |
| 2026-05-06 20:04 | 50.15940 | 16.01243 | 27038 ft | 376 kts | 274° |
| 2026-05-06 20:04 | 50.16281 | 15.97265 | 26585 ft | 373 kts | 274° |
| 2026-05-06 20:05 | 50.16622 | 15.93260 | 26140 ft | 371 kts | 274° |
| 2026-05-06 20:05 | 50.16960 | 15.89293 | 25693 ft | 368 kts | 274° |
| 2026-05-06 20:05 | 50.17297 | 15.85297 | 25240 ft | 365 kts | 274° |
| 2026-05-06 20:05 | 50.17621 | 15.81435 | 24807 ft | 363 kts | 274° |
| 2026-05-06 20:06 | 50.17947 | 15.77545 | 24358 ft | 360 kts | 274° |
| 2026-05-06 20:06 | 50.18273 | 15.73652 | 23942 ft | 358 kts | 274° |
| 2026-05-06 20:06 | 50.18590 | 15.69865 | 23517 ft | 355 kts | 274° |
| 2026-05-06 20:06 | 50.18909 | 15.66050 | 23034 ft | 353 kts | 274° |
| 2026-05-06 20:07 | 50.19222 | 15.62254 | 22545 ft | 351 kts | 274° |
| 2026-05-06 20:07 | 50.19526 | 15.58563 | 22085 ft | 348 kts | 274° |
| 2026-05-06 20:07 | 50.19835 | 15.54804 | 21641 ft | 346 kts | 274° |
| 2026-05-06 20:07 | 50.20137 | 15.51092 | 21179 ft | 344 kts | 274° |
| 2026-05-06 20:08 | 50.20436 | 15.47410 | 20747 ft | 342 kts | 274° |
| 2026-05-06 20:08 | 50.20734 | 15.43743 | 20305 ft | 339 kts | 274° |
| 2026-05-06 20:08 | 50.21031 | 15.40098 | 19889 ft | 337 kts | 274° |
| 2026-05-06 20:08 | 50.21322 | 15.36478 | 19480 ft | 335 kts | 274° |
| 2026-05-06 20:09 | 50.21610 | 15.32872 | 19080 ft | 333 kts | 274° |
| 2026-05-06 20:09 | 50.21896 | 15.29284 | 18674 ft | 333 kts | 272° |
| 2026-05-06 20:09 | 50.22178 | 15.25722 | 18268 ft | 332 kts | 272° |
| 2026-05-06 20:09 | 50.22461 | 15.22147 | 17849 ft | 331 kts | 272° |
| 2026-05-06 20:10 | 50.22742 | 15.18600 | 17441 ft | 328 kts | 272° |
| 2026-05-06 20:10 | 50.23020 | 15.15073 | 17049 ft | 325 kts | 272° |
| 2026-05-06 20:10 | 50.23291 | 15.11591 | 16671 ft | 322 kts | 272° |
| 2026-05-06 20:10 | 50.23558 | 15.08129 | 16303 ft | 320 kts | 272° |
| 2026-05-06 20:11 | 50.23821 | 15.04702 | 15947 ft | 317 kts | 272° |
| 2026-05-06 20:11 | 50.24084 | 15.01298 | 15597 ft | 314 kts | 272° |
| 2026-05-06 20:11 | 50.24343 | 14.97933 | 15296 ft | 311 kts | 272° |
| 2026-05-06 20:11 | 50.24598 | 14.94585 | 14928 ft | 309 kts | 272° |
| 2026-05-06 20:12 | 50.24851 | 14.91257 | 14590 ft | 307 kts | 272° |
| 2026-05-06 20:12 | 50.25106 | 14.87963 | 14261 ft | 305 kts | 272° |
| 2026-05-06 20:12 | 50.25353 | 14.84691 | 13960 ft | 302 kts | 272° |
| 2026-05-06 20:12 | 50.25582 | 14.81528 | 13653 ft | 299 kts | 272° |
| 2026-05-06 20:13 | 50.25811 | 14.78316 | 13308 ft | 296 kts | 272° |
| 2026-05-06 20:13 | 50.26032 | 14.75125 | 12934 ft | 294 kts | 272° |
| 2026-05-06 20:13 | 50.26245 | 14.71962 | 12563 ft | 292 kts | 272° |
| 2026-05-06 20:13 | 50.26435 | 14.69082 | 12240 ft | 290 kts | 272° |
| 2026-05-06 20:14 | 50.26613 | 14.66303 | 11914 ft | 288 kts | 272° |
| 2026-05-06 20:14 | 50.26806 | 14.63200 | 11549 ft | 286 kts | 272° |
| 2026-05-06 20:14 | 50.26992 | 14.60111 | 11169 ft | 284 kts | 272° |
| 2026-05-06 20:14 | 50.27169 | 14.57051 | 10808 ft | 282 kts | 272° |
| 2026-05-06 20:15 | 50.27277 | 14.55110 | 10585 ft | 280 kts | 272° |
| 2026-05-06 20:15 | 50.27400 | 14.52870 | 10305 ft | 279 kts | 272° |
| 2026-05-06 20:15 | 50.27560 | 14.49874 | 10046 ft | 273 kts | 272° |
| 2026-05-06 20:15 | 50.27711 | 14.46935 | 9743 ft | 270 kts | 272° |
| 2026-05-06 20:16 | 50.27856 | 14.44022 | 9375 ft | 267 kts | 272° |
| 2026-05-06 20:16 | 50.27998 | 14.41134 | 8988 ft | 266 kts | 272° |
| 2026-05-06 20:16 | 50.28140 | 14.38275 | 8638 ft | 262 kts | 272° |
| 2026-05-06 20:16 | 50.28288 | 14.35445 | 8264 ft | 259 kts | 272° |
| 2026-05-06 20:17 | 50.28433 | 14.32641 | 7865 ft | 258 kts | 272° |
| 2026-05-06 20:17 | 50.28574 | 14.29857 | 7441 ft | 256 kts | 272° |
| 2026-05-06 20:17 | 50.28712 | 14.27086 | 7024 ft | 256 kts | 272° |
| 2026-05-06 20:17 | 50.28843 | 14.24311 | 6611 ft | 254 kts | 270° |
| 2026-05-06 20:18 | 50.28641 | 14.21630 | 6402 ft | 243 kts | 257° |
| 2026-05-06 20:18 | 50.28258 | 14.19140 | 6262 ft | 226 kts | 255° |
| 2026-05-06 20:18 | 50.27883 | 14.16822 | 6037 ft | 220 kts | 255° |
| 2026-05-06 20:18 | 50.27507 | 14.14514 | 5721 ft | 218 kts | 255° |
| 2026-05-06 20:19 | 50.27131 | 14.12218 | 5369 ft | 217 kts | 255° |
| 2026-05-06 20:19 | 50.26753 | 14.09931 | 5021 ft | 217 kts | 255° |
| 2026-05-06 20:19 | 50.26376 | 14.07656 | 4702 ft | 216 kts | 255° |
| 2026-05-06 20:19 | 50.25998 | 14.05392 | 4360 ft | 215 kts | 255° |
| 2026-05-06 20:20 | 50.25629 | 14.03164 | 4022 ft | 210 kts | 255° |
| 2026-05-06 20:20 | 50.25168 | 14.00982 | 4019 ft | 214 kts | 240° |
| 2026-05-06 20:20 | 50.24095 | 13.99600 | 4013 ft | 209 kts | 200° |
| 2026-05-06 20:20 | 50.22654 | 13.99791 | 4037 ft | 218 kts | 157° |
| 2026-05-06 20:21 | 50.21615 | 14.01490 | 4023 ft | 224 kts | 122° |
| 2026-05-06 20:21 | 50.20896 | 14.03475 | 4005 ft | 198 kts | 129° |
| 2026-05-06 20:21 | 50.20115 | 14.05161 | 4034 ft | 188 kts | 132° |
| 2026-05-06 20:21 | 50.19337 | 14.06784 | 3942 ft | 185 kts | 132° |
| 2026-05-06 20:22 | 50.18570 | 14.08380 | 3745 ft | 183 kts | 132° |
| 2026-05-06 20:22 | 50.17813 | 14.09958 | 3508 ft | 181 kts | 133° |
| 2026-05-06 20:22 | 50.17060 | 14.11525 | 3269 ft | 180 kts | 133° |
| 2026-05-06 20:22 | 50.16311 | 14.13086 | 3041 ft | 179 kts | 133° |
| 2026-05-06 20:23 | 50.15564 | 14.14640 | 2804 ft | 178 kts | 133° |
| 2026-05-06 20:23 | 50.14854 | 14.16122 | 2567 ft | 163 kts | 133° |
| 2026-05-06 20:23 | 50.14204 | 14.17478 | 2364 ft | 150 kts | 134° |
| 2026-05-06 20:23 | 50.13595 | 14.18742 | 2159 ft | 143 kts | 134° |
| 2026-05-06 20:24 | 50.13000 | 14.19974 | 1958 ft | 140 kts | 132° |
| 2026-05-06 20:24 | 50.12425 | 14.21166 | 1746 ft | 135 kts | 131° |
| 2026-05-06 20:24 | 50.11867 | 14.22337 | 1575 ft | 133 kts | 130° |
| 2026-05-06 20:24 | 50.11312 | 14.23500 | 1369 ft | 134 kts | 132° |
| 2026-05-06 20:25 | 50.10758 | 14.24643 | 1192 ft | 134 kts | 130° |
| 2026-05-06 20:25 | 50.10226 | 14.25719 | 1187 ft | 109 kts | 127° |
| 2026-05-06 20:25 | 50.09900 | 14.26389 | 1199 ft | 45 kts | 126° |
| 2026-05-06 20:25 | 50.09857 | 14.26598 | 1207 ft | 19 kts | 51° |
| 2026-05-06 20:26 | 50.09892 | 14.26816 | 1208 ft | 24 kts | 82° |
| 2026-05-06 20:26 | 50.09912 | 14.27028 | 1205 ft | 17 kts | 81° |
| 2026-05-06 20:26 | 50.09954 | 14.27115 | 1199 ft | 10 kts | 340° |
| 2026-05-06 20:26 | 50.10022 | 14.26968 | 1194 ft | 24 kts | 305° |
| 2026-05-06 20:27 | 50.10111 | 14.26782 | 1184 ft | 24 kts | 307° |
| 2026-05-06 20:27 | 50.10194 | 14.26610 | 1177 ft | 14 kts | 306° |
| 2026-05-06 20:27 | 50.10262 | 14.26535 | 1176 ft | 18 kts | 20° |
| 2026-05-06 20:27 | 50.10339 | 14.26612 | 1170 ft | 10 kts | 37° |
| 2026-05-06 20:28 | 50.10337 | 14.26702 | 1173 ft | 6 kts | 90° |
| 2026-05-06 20:28 | 50.10362 | 14.26738 | 1173 ft | 2 kts | 36° |
| 2026-05-06 20:28 | 50.10371 | 14.26748 | 1172 ft | 0 kts | 34° |